X  Close Metar Aviation Weather Data     KVAD Moody Air Force Base
Temperature
75°F Temperature
73°F Dewpoint
94% Humidity



Wind
0 MPH
0 KM/H
0 M/S
0 KTS



Calm
N
Current Conditions

Partly Cloudy Partly Cloudy
Pressure 1014.92 (hPa) - 29.97 (inHg)
Visibility 10 (mile) - 16.1 (km)
Airport
Airport-code KVAD

Location: Moody Air Force Base
Distance: 5 (mi)

Metar:
KVAD 190503Z AUTO 00000KT 10SM FEW007 SCT025 BKN160 24/23 A2997 RMK AO2 SLP149 $

Time: 19-08-2022 01:03 EDT